Cameron, WI (54822)

3:52 AM CDT on March 26, 2017 (GMT -0500)
Cameron, WI North | | Change Station

Elev 1102 ft 45.42 °N, 91.74 °W | Updated 29 seconds ago

Drizzle
Drizzle
34.2 °F
Feels Like 34 °F
N
2.0
Wind Variable Wind from ENE

Today
High -- | Low -- °F
--% Chance of Precip.
Yesterday
High -- | Low -- °F
Precip. -- in
Pressure 30.00 in
Visibility 2.5 miles
Clouds Overcast 600 ft
Windchill 34 °F
Dew Point 32 °F
Humidity 91%
Rainfall 0.00 in
Snow Depth Not available.
6:58 AM 7:27 PM
Waning Crescent, 4% visible
METAR KRPD 260835Z AUTO 00000KT 2 1/2SM DZ OVC006 02/01 A3000 RMK AO2 T00150010
Pressure 30.00 in
Visibility 2.5 miles
Clouds Overcast 600 ft
Windchill 34 °F
Dew Point 32 °F
Humidity 91%
Rainfall 0.00 in
Snow Depth Not available.
6:58 AM 7:27 PM
Waning Crescent, 4% visible
METAR KRPD 260835Z AUTO 00000KT 2 1/2SM DZ OVC006 02/01 A3000 RMK AO2 T00150010

Get Severe Weather Alerts

Thanks for signing up!

Be on the lookout for a verification email in your inbox.

You'll start receiving the daily forecast at 8 AM.

×

10-Day Weather Forecast

Almanac

Astronomy

Mar. 26, 2017 Rise Set
Actual Time
Civil Twilight
Nautical Twilight
Astronomical Twilight
Moon
Length of Visible Light
Length of Day
Tomorrow will be .
, % of the Moon is Illuminated

Today's Extremes

State Highs State Lows

Community

WunderPhotos

Upload Photos

1,962,540 photos uploaded!

WunderBlog® & News

Nearby

Air Quality

  Air Quality AQ Index Pollutant
Not available.

Snow Depth

Station Depth Elevation

Earthquake Activity

City Distance Mag. Time & Date
Minimum magnitude displayed is 2.5.

Earthquake Activity

City Distance Mag. Time & Date
Minimum magnitude displayed is 2.5.

Coastal Water Temperatures

Place Temperature

Stations

Nearby Weather Stations

Station Location Temp. Windchill Dew Point Humidity Wind Precip. Elev Updated Type
                   

Watches & Warnings

There are currently no watches in effect.